Roscoe, MT

3:52 PM MDT on September 01, 2015 (GMT -0600)
Willow Creek Road | | Change Station
CLOSE
Current Station
Personal Weather Station
Location: Red Lodge, MT
Elevation: 5102 ft
Nearby Weather Stations
Active Advisory: Fire Weather Warning

Elev 5102 ft 45.27 °N, 109.26 °W | Updated 6 minutes ago

Clear
Clear
89.4 °F
Feels Like 85 °F
N
3.7
Wind Variable Wind from ESE

Today
High -- | Low -- °F
--% Chance of Precip.
Yesterday
High -- | Low -- °F
Precip. -- in
6:39 AM 7:55 PM
Waning Gibbous, 86% visible
Pressure 29.73 in
Visibility 10.0 miles
Clouds Few 11000 ft
Few 18000 ft
Heat Index 85 °F
Dew Point 37 °F
Humidity 16%
Rainfall 0.00 in
Snow Depth Not available.
UV 7 out of 12
Pollen 9.10 out of 12
Air Quality Not available.
Flu Activity Not available.
METAR KBIL 012053Z 25006KT 10SM FEW110 FEW180 31/M03 A2984 RMK AO2 SLP067 ACSL DSNT NW T03111028 56015
Pressure 29.73 in
Visibility 10.0 miles
Clouds Few 11000 ft
Few 18000 ft
Heat Index 85 °F
Dew Point 37 °F
Humidity 16%
Rainfall 0.00 in
Snow Depth Not available.
UV 7 out of 12
Pollen 9.10 out of 12
Air Quality Not available.
Flu Activity Not available.
METAR KBIL 012053Z 25006KT 10SM FEW110 FEW180 31/M03 A2984 RMK AO2 SLP067 ACSL DSNT NW T03111028 56015

10-Day Weather Forecast

×

Almanac

Astronomy

Sep. 01, 2015 Rise Set
Actual Time
Civil Twilight
Nautical Twilight
Astronomical Twilight
Moon
Length of Visible Light
Length of Day
Tomorrow will be .
, % of the Moon is Illuminated

Today's Extremes

State Highs State Lows

Community

WunderPhotos

Upload Photos

1,851,628 photos uploaded!

WunderBlogs® & News

Nearby

Air Quality

  Air Quality AQ Index Pollutant
Not available.

Snow Depth

Station Depth Elevation

Earthquake Activity

City Distance Mag. Time & Date
Minimum magnitude displayed is 2.5.

Coastal Water Temperatures

Place Temperature

Stations

Nearby Weather Stations

Station Location Temp. Windchill Dew Point Humidity Wind Precip. Elev Updated Type
                   
Fire Weather Warning
Statement as of 2:37 PM MDT on September 01, 2015

... Red flag warning remains in effect from noon Wednesday to
midnight MDT Wednesday night...

* impacts: low humidities... hot temperatures... and strong gusty
winds will create critical fire weather conditions.

* Affected area:
   in south central Mt... fire weather zones 123... 124... 125 and
   126.

* Counties affected:
   in central Mt... Wheatland.
   In south central Mt... Carbon... park... Stillwater... Sweet Grass.
   In southwest Mt... Gallatin.

* Wind: southwest 15 to 25 mph with gusts up to 35 mph.

* Humidity: in the teens.

* Temperatures: upper 80s to lower 90s.

Precautionary/preparedness actions...

Be very careful with any open flames. Check with local officials
before conducting any burning.